sensor_id;sensor_type;location;lat;lon;timestamp;P1;durP1;ratioP1;P2;durP2;ratioP2
57593;SDS011;43423;46.510;6.686;2023-12-20T00:00:26;31.60;;;12.02;;
57593;SDS011;43423;46.510;6.686;2023-12-20T00:03:11;31.73;;;9.80;;
57593;SDS011;43423;46.510;6.686;2023-12-20T00:05:37;24.50;;;9.30;;
57593;SDS011;43423;46.510;6.686;2023-12-20T00:08:06;25.83;;;10.38;;
57593;SDS011;43423;46.510;6.686;2023-12-20T00:10:32;22.92;;;8.88;;
57593;SDS011;43423;46.510;6.686;2023-12-20T00:12:57;30.50;;;9.63;;
57593;SDS011;43423;46.510;6.686;2023-12-20T00:15:23;31.25;;;10.95;;
57593;SDS011;43423;46.510;6.686;2023-12-20T00:17:48;30.13;;;11.73;;
57593;SDS011;43423;46.510;6.686;2023-12-20T00:20:14;28.70;;;11.40;;
57593;SDS011;43423;46.510;6.686;2023-12-20T00:22:40;31.50;;;11.00;;
57593;SDS011;43423;46.510;6.686;2023-12-20T00:25:06;31.48;;;10.77;;
57593;SDS011;43423;46.510;6.686;2023-12-20T00:27:32;23.33;;;9.48;;
57593;SDS011;43423;46.510;6.686;2023-12-20T00:29:58;26.45;;;9.90;;
57593;SDS011;43423;46.510;6.686;2023-12-20T00:32:23;26.73;;;9.63;;
57593;SDS011;43423;46.510;6.686;2023-12-20T00:34:50;26.23;;;9.95;;
57593;SDS011;43423;46.510;6.686;2023-12-20T00:37:15;24.35;;;8.65;;
57593;SDS011;43423;46.510;6.686;2023-12-20T00:39:41;20.33;;;8.30;;
57593;SDS011;43423;46.510;6.686;2023-12-20T00:42:07;21.83;;;9.05;;
57593;SDS011;43423;46.510;6.686;2023-12-20T00:44:33;26.17;;;8.82;;
57593;SDS011;43423;46.510;6.686;2023-12-20T00:46:58;22.60;;;9.18;;
57593;SDS011;43423;46.510;6.686;2023-12-20T00:49:24;21.65;;;8.30;;
57593;SDS011;43423;46.510;6.686;2023-12-20T00:51:50;27.08;;;8.15;;
57593;SDS011;43423;46.510;6.686;2023-12-20T00:54:18;19.52;;;8.07;;
57593;SDS011;43423;46.510;6.686;2023-12-20T00:56:43;23.33;;;9.35;;
57593;SDS011;43423;46.510;6.686;2023-12-20T00:59:09;21.13;;;8.13;;
57593;SDS011;43423;46.510;6.686;2023-12-20T01:01:35;23.30;;;9.23;;
57593;SDS011;43423;46.510;6.686;2023-12-20T01:04:01;23.67;;;8.23;;
57593;SDS011;43423;46.510;6.686;2023-12-20T01:06:27;21.02;;;8.32;;
57593;SDS011;43423;46.510;6.686;2023-12-20T01:08:52;23.98;;;8.55;;
57593;SDS011;43423;46.510;6.686;2023-12-20T01:11:18;21.67;;;9.25;;
57593;SDS011;43423;46.510;6.686;2023-12-20T01:13:44;20.52;;;8.48;;
57593;SDS011;43423;46.510;6.686;2023-12-20T01:16:10;21.23;;;9.10;;
57593;SDS011;43423;46.510;6.686;2023-12-20T01:18:37;21.75;;;8.40;;
57593;SDS011;43423;46.510;6.686;2023-12-20T01:21:02;14.85;;;7.05;;
57593;SDS011;43423;46.510;6.686;2023-12-20T01:23:29;26.08;;;9.20;;
57593;SDS011;43423;46.510;6.686;2023-12-20T01:25:54;14.02;;;6.40;;
57593;SDS011;43423;46.510;6.686;2023-12-20T01:28:20;22.60;;;7.95;;
57593;SDS011;43423;46.510;6.686;2023-12-20T01:30:46;22.80;;;8.07;;
57593;SDS011;43423;46.510;6.686;2023-12-20T01:33:11;19.70;;;7.30;;
57593;SDS011;43423;46.510;6.686;2023-12-20T01:35:37;28.38;;;9.52;;
57593;SDS011;43423;46.510;6.686;2023-12-20T01:38:03;17.30;;;8.90;;
57593;SDS011;43423;46.510;6.686;2023-12-20T01:40:28;20.40;;;7.88;;
57593;SDS011;43423;46.510;6.686;2023-12-20T01:43:01;22.15;;;9.07;;
57593;SDS011;43423;46.510;6.686;2023-12-20T01:45:27;21.00;;;9.13;;
57593;SDS011;43423;46.510;6.686;2023-12-20T01:47:54;25.52;;;8.85;;
57593;SDS011;43423;46.510;6.686;2023-12-20T01:50:21;23.20;;;8.98;;
57593;SDS011;43423;46.510;6.686;2023-12-20T01:52:47;19.25;;;8.45;;
57593;SDS011;43423;46.510;6.686;2023-12-20T01:55:13;23.85;;;8.82;;
57593;SDS011;43423;46.510;6.686;2023-12-20T01:57:41;22.65;;;8.88;;
57593;SDS011;43423;46.510;6.686;2023-12-20T02:00:08;19.50;;;8.40;;
57593;SDS011;43423;46.510;6.686;2023-12-20T02:02:36;24.00;;;8.70;;
57593;SDS011;43423;46.510;6.686;2023-12-20T02:05:05;22.40;;;8.23;;
57593;SDS011;43423;46.510;6.686;2023-12-20T02:07:31;20.38;;;8.38;;
57593;SDS011;43423;46.510;6.686;2023-12-20T02:09:57;19.90;;;8.25;;
57593;SDS011;43423;46.510;6.686;2023-12-20T02:12:23;21.10;;;8.05;;
57593;SDS011;43423;46.510;6.686;2023-12-20T02:14:48;22.23;;;9.60;;
57593;SDS011;43423;46.510;6.686;2023-12-20T02:17:15;27.73;;;9.45;;
57593;SDS011;43423;46.510;6.686;2023-12-20T02:19:41;17.17;;;8.30;;
57593;SDS011;43423;46.510;6.686;2023-12-20T02:22:10;21.25;;;7.70;;
57593;SDS011;43423;46.510;6.686;2023-12-20T02:24:36;23.42;;;8.32;;
57593;SDS011;43423;46.510;6.686;2023-12-20T02:27:02;18.90;;;8.10;;
57593;SDS011;43423;46.510;6.686;2023-12-20T02:29:30;25.65;;;9.10;;
57593;SDS011;43423;46.510;6.686;2023-12-20T02:31:56;19.90;;;8.40;;
57593;SDS011;43423;46.510;6.686;2023-12-20T02:34:21;21.67;;;7.95;;
57593;SDS011;43423;46.510;6.686;2023-12-20T02:36:47;19.23;;;8.00;;
57593;SDS011;43423;46.510;6.686;2023-12-20T02:39:13;19.30;;;8.05;;
57593;SDS011;43423;46.510;6.686;2023-12-20T02:41:39;15.52;;;6.68;;
57593;SDS011;43423;46.510;6.686;2023-12-20T02:44:05;17.05;;;7.40;;
57593;SDS011;43423;46.510;6.686;2023-12-20T02:46:30;15.32;;;6.95;;
57593;SDS011;43423;46.510;6.686;2023-12-20T02:48:56;20.08;;;7.45;;
57593;SDS011;43423;46.510;6.686;2023-12-20T02:51:21;17.77;;;8.02;;
57593;SDS011;43423;46.510;6.686;2023-12-20T02:53:47;18.27;;;8.40;;
57593;SDS011;43423;46.510;6.686;2023-12-20T02:56:13;16.60;;;6.40;;
57593;SDS011;43423;46.510;6.686;2023-12-20T02:58:39;14.88;;;6.18;;
57593;SDS011;43423;46.510;6.686;2023-12-20T03:01:05;19.52;;;7.88;;
57593;SDS011;43423;46.510;6.686;2023-12-20T03:03:31;20.88;;;7.07;;
57593;SDS011;43423;46.510;6.686;2023-12-20T03:05:57;17.75;;;6.63;;
57593;SDS011;43423;46.510;6.686;2023-12-20T03:08:23;17.40;;;7.82;;
57593;SDS011;43423;46.510;6.686;2023-12-20T03:10:49;16.48;;;7.00;;
57593;SDS011;43423;46.510;6.686;2023-12-20T03:13:14;15.70;;;7.22;;
57593;SDS011;43423;46.510;6.686;2023-12-20T03:15:40;21.55;;;7.85;;
57593;SDS011;43423;46.510;6.686;2023-12-20T03:18:05;20.75;;;7.05;;
57593;SDS011;43423;46.510;6.686;2023-12-20T03:20:31;19.88;;;7.85;;
57593;SDS011;43423;46.510;6.686;2023-12-20T03:23:02;19.55;;;7.03;;
57593;SDS011;43423;46.510;6.686;2023-12-20T03:25:28;15.73;;;7.07;;
57593;SDS011;43423;46.510;6.686;2023-12-20T03:27:53;20.98;;;8.30;;
57593;SDS011;43423;46.510;6.686;2023-12-20T03:30:19;12.60;;;6.55;;
57593;SDS011;43423;46.510;6.686;2023-12-20T03:32:46;15.50;;;5.88;;
57593;SDS011;43423;46.510;6.686;2023-12-20T03:35:12;13.73;;;6.80;;
57593;SDS011;43423;46.510;6.686;2023-12-20T03:37:37;15.57;;;6.60;;
57593;SDS011;43423;46.510;6.686;2023-12-20T03:40:03;13.20;;;5.93;;
57593;SDS011;43423;46.510;6.686;2023-12-20T03:42:30;17.63;;;6.80;;
57593;SDS011;43423;46.510;6.686;2023-12-20T03:44:56;17.80;;;7.30;;
57593;SDS011;43423;46.510;6.686;2023-12-20T03:47:21;15.95;;;6.70;;
57593;SDS011;43423;46.510;6.686;2023-12-20T03:49:47;16.85;;;6.70;;
57593;SDS011;43423;46.510;6.686;2023-12-20T03:52:13;23.10;;;7.15;;
57593;SDS011;43423;46.510;6.686;2023-12-20T03:54:39;17.02;;;7.80;;
57593;SDS011;43423;46.510;6.686;2023-12-20T03:57:06;17.73;;;6.88;;
57593;SDS011;43423;46.510;6.686;2023-12-20T03:59:38;16.17;;;6.38;;
57593;SDS011;43423;46.510;6.686;2023-12-20T04:02:04;17.63;;;6.85;;
57593;SDS011;43423;46.510;6.686;2023-12-20T04:04:29;22.38;;;7.80;;
57593;SDS011;43423;46.510;6.686;2023-12-20T04:06:55;16.58;;;7.00;;
57593;SDS011;43423;46.510;6.686;2023-12-20T04:09:21;15.68;;;6.78;;
57593;SDS011;43423;46.510;6.686;2023-12-20T04:11:46;26.88;;;8.70;;
57593;SDS011;43423;46.510;6.686;2023-12-20T04:14:12;23.85;;;9.02;;
57593;SDS011;43423;46.510;6.686;2023-12-20T04:16:37;29.02;;;8.63;;
57593;SDS011;43423;46.510;6.686;2023-12-20T04:19:04;27.25;;;8.43;;
57593;SDS011;43423;46.510;6.686;2023-12-20T04:21:30;20.90;;;7.97;;
57593;SDS011;43423;46.510;6.686;2023-12-20T04:23:56;24.80;;;8.38;;
57593;SDS011;43423;46.510;6.686;2023-12-20T04:26:22;21.25;;;7.55;;
57593;SDS011;43423;46.510;6.686;2023-12-20T04:28:47;17.98;;;7.63;;
57593;SDS011;43423;46.510;6.686;2023-12-20T04:31:13;19.92;;;7.65;;
57593;SDS011;43423;46.510;6.686;2023-12-20T04:33:39;17.15;;;6.55;;
57593;SDS011;43423;46.510;6.686;2023-12-20T04:36:04;16.05;;;6.53;;
57593;SDS011;43423;46.510;6.686;2023-12-20T04:38:30;16.15;;;6.90;;
57593;SDS011;43423;46.510;6.686;2023-12-20T04:40:56;21.20;;;6.85;;
57593;SDS011;43423;46.510;6.686;2023-12-20T04:43:22;15.00;;;6.43;;
57593;SDS011;43423;46.510;6.686;2023-12-20T04:45:47;15.38;;;6.82;;
57593;SDS011;43423;46.510;6.686;2023-12-20T04:48:13;11.52;;;4.95;;
57593;SDS011;43423;46.510;6.686;2023-12-20T04:50:39;15.35;;;5.95;;
57593;SDS011;43423;46.510;6.686;2023-12-20T04:53:04;13.60;;;6.13;;
57593;SDS011;43423;46.510;6.686;2023-12-20T04:55:30;14.88;;;6.00;;
57593;SDS011;43423;46.510;6.686;2023-12-20T04:57:55;15.70;;;6.00;;
57593;SDS011;43423;46.510;6.686;2023-12-20T05:00:22;14.30;;;5.85;;
57593;SDS011;43423;46.510;6.686;2023-12-20T05:02:47;16.67;;;5.60;;
57593;SDS011;43423;46.510;6.686;2023-12-20T05:05:13;12.98;;;4.70;;
57593;SDS011;43423;46.510;6.686;2023-12-20T05:07:40;20.23;;;4.95;;
57593;SDS011;43423;46.510;6.686;2023-12-20T05:10:06;18.23;;;6.28;;
57593;SDS011;43423;46.510;6.686;2023-12-20T05:12:35;15.40;;;5.50;;
57593;SDS011;43423;46.510;6.686;2023-12-20T05:15:00;11.13;;;4.75;;
57593;SDS011;43423;46.510;6.686;2023-12-20T05:17:26;14.50;;;5.75;;
57593;SDS011;43423;46.510;6.686;2023-12-20T05:19:52;16.83;;;5.68;;
57593;SDS011;43423;46.510;6.686;2023-12-20T05:22:18;17.15;;;5.18;;
57593;SDS011;43423;46.510;6.686;2023-12-20T05:24:45;21.92;;;5.90;;
57593;SDS011;43423;46.510;6.686;2023-12-20T05:27:10;14.70;;;5.43;;
57593;SDS011;43423;46.510;6.686;2023-12-20T05:29:36;15.43;;;5.65;;
57593;SDS011;43423;46.510;6.686;2023-12-20T05:32:02;15.57;;;6.13;;
57593;SDS011;43423;46.510;6.686;2023-12-20T05:34:30;17.58;;;5.28;;
57593;SDS011;43423;46.510;6.686;2023-12-20T05:36:57;17.00;;;5.97;;
57593;SDS011;43423;46.510;6.686;2023-12-20T05:39:23;25.15;;;6.30;;
57593;SDS011;43423;46.510;6.686;2023-12-20T05:41:49;19.15;;;6.20;;
57593;SDS011;43423;46.510;6.686;2023-12-20T05:44:15;23.50;;;7.53;;
57593;SDS011;43423;46.510;6.686;2023-12-20T05:46:40;18.35;;;6.70;;
57593;SDS011;43423;46.510;6.686;2023-12-20T05:49:06;19.77;;;6.63;;
57593;SDS011;43423;46.510;6.686;2023-12-20T05:51:32;20.13;;;7.30;;
57593;SDS011;43423;46.510;6.686;2023-12-20T05:53:58;12.95;;;5.78;;
57593;SDS011;43423;46.510;6.686;2023-12-20T05:56:23;16.55;;;6.68;;
57593;SDS011;43423;46.510;6.686;2023-12-20T05:58:49;21.17;;;7.50;;
57593;SDS011;43423;46.510;6.686;2023-12-20T06:01:15;17.60;;;6.15;;
57593;SDS011;43423;46.510;6.686;2023-12-20T06:03:42;19.67;;;7.40;;
57593;SDS011;43423;46.510;6.686;2023-12-20T06:06:08;27.23;;;7.55;;
57593;SDS011;43423;46.510;6.686;2023-12-20T06:08:34;14.88;;;6.57;;
57593;SDS011;43423;46.510;6.686;2023-12-20T06:11:00;25.20;;;7.35;;
57593;SDS011;43423;46.510;6.686;2023-12-20T06:13:26;22.80;;;7.78;;
57593;SDS011;43423;46.510;6.686;2023-12-20T06:15:53;19.77;;;7.75;;
57593;SDS011;43423;46.510;6.686;2023-12-20T06:18:20;25.55;;;8.77;;
57593;SDS011;43423;46.510;6.686;2023-12-20T06:20:46;24.58;;;7.03;;
57593;SDS011;43423;46.510;6.686;2023-12-20T06:23:12;21.05;;;8.25;;
57593;SDS011;43423;46.510;6.686;2023-12-20T06:25:37;24.95;;;8.70;;
57593;SDS011;43423;46.510;6.686;2023-12-20T06:28:03;24.98;;;9.15;;
57593;SDS011;43423;46.510;6.686;2023-12-20T06:30:29;27.83;;;7.90;;
57593;SDS011;43423;46.510;6.686;2023-12-20T06:32:54;23.42;;;8.15;;
57593;SDS011;43423;46.510;6.686;2023-12-20T06:35:22;25.75;;;9.38;;
57593;SDS011;43423;46.510;6.686;2023-12-20T06:37:48;20.95;;;7.95;;
57593;SDS011;43423;46.510;6.686;2023-12-20T06:40:14;27.50;;;11.13;;
57593;SDS011;43423;46.510;6.686;2023-12-20T06:42:40;28.38;;;9.68;;
57593;SDS011;43423;46.510;6.686;2023-12-20T06:45:05;29.25;;;9.82;;
57593;SDS011;43423;46.510;6.686;2023-12-20T06:47:31;25.88;;;9.88;;
57593;SDS011;43423;46.510;6.686;2023-12-20T06:49:57;25.35;;;10.82;;
57593;SDS011;43423;46.510;6.686;2023-12-20T06:52:23;25.27;;;10.80;;
57593;SDS011;43423;46.510;6.686;2023-12-20T06:54:48;32.75;;;11.60;;
57593;SDS011;43423;46.510;6.686;2023-12-20T06:57:14;33.80;;;11.32;;
57593;SDS011;43423;46.510;6.686;2023-12-20T06:59:42;34.33;;;10.43;;
57593;SDS011;43423;46.510;6.686;2023-12-20T07:02:09;24.05;;;9.52;;
57593;SDS011;43423;46.510;6.686;2023-12-20T07:04:39;24.98;;;9.48;;
57593;SDS011;43423;46.510;6.686;2023-12-20T07:07:05;27.00;;;10.55;;
57593;SDS011;43423;46.510;6.686;2023-12-20T07:09:32;35.15;;;12.07;;
57593;SDS011;43423;46.510;6.686;2023-12-20T07:11:58;29.15;;;11.32;;
57593;SDS011;43423;46.510;6.686;2023-12-20T07:14:24;26.95;;;9.73;;
57593;SDS011;43423;46.510;6.686;2023-12-20T07:16:50;27.05;;;8.82;;
57593;SDS011;43423;46.510;6.686;2023-12-20T07:19:15;24.42;;;9.30;;
57593;SDS011;43423;46.510;6.686;2023-12-20T07:21:41;30.92;;;10.80;;
57593;SDS011;43423;46.510;6.686;2023-12-20T07:24:06;24.00;;;7.97;;
57593;SDS011;43423;46.510;6.686;2023-12-20T07:26:32;29.23;;;8.07;;
57593;SDS011;43423;46.510;6.686;2023-12-20T07:28:59;23.77;;;7.38;;
57593;SDS011;43423;46.510;6.686;2023-12-20T07:31:24;19.40;;;7.22;;
57593;SDS011;43423;46.510;6.686;2023-12-20T07:33:50;21.58;;;7.82;;
57593;SDS011;43423;46.510;6.686;2023-12-20T07:36:16;27.42;;;9.25;;
57593;SDS011;43423;46.510;6.686;2023-12-20T07:38:42;26.85;;;8.77;;
57593;SDS011;43423;46.510;6.686;2023-12-20T07:41:09;20.75;;;8.38;;
57593;SDS011;43423;46.510;6.686;2023-12-20T07:43:35;20.55;;;7.10;;
57593;SDS011;43423;46.510;6.686;2023-12-20T07:46:05;32.17;;;8.32;;
57593;SDS011;43423;46.510;6.686;2023-12-20T07:48:32;28.02;;;9.05;;
57593;SDS011;43423;46.510;6.686;2023-12-20T07:50:58;31.08;;;10.30;;
57593;SDS011;43423;46.510;6.686;2023-12-20T07:53:24;27.52;;;9.90;;
57593;SDS011;43423;46.510;6.686;2023-12-20T07:55:50;28.70;;;11.15;;
57593;SDS011;43423;46.510;6.686;2023-12-20T07:58:17;30.38;;;9.57;;
57593;SDS011;43423;46.510;6.686;2023-12-20T08:00:43;24.90;;;10.32;;
57593;SDS011;43423;46.510;6.686;2023-12-20T08:03:09;27.55;;;9.57;;
57593;SDS011;43423;46.510;6.686;2023-12-20T08:05:35;26.42;;;11.10;;
57593;SDS011;43423;46.510;6.686;2023-12-20T08:08:01;28.00;;;9.40;;
57593;SDS011;43423;46.510;6.686;2023-12-20T08:10:26;31.85;;;10.23;;
57593;SDS011;43423;46.510;6.686;2023-12-20T08:12:54;33.17;;;11.70;;
57593;SDS011;43423;46.510;6.686;2023-12-20T08:15:20;31.60;;;11.02;;
57593;SDS011;43423;46.510;6.686;2023-12-20T08:17:46;23.30;;;9.13;;
57593;SDS011;43423;46.510;6.686;2023-12-20T08:20:11;31.13;;;10.60;;
57593;SDS011;43423;46.510;6.686;2023-12-20T08:22:37;32.67;;;10.23;;
57593;SDS011;43423;46.510;6.686;2023-12-20T08:25:03;24.75;;;9.25;;
57593;SDS011;43423;46.510;6.686;2023-12-20T08:27:29;26.90;;;10.00;;
57593;SDS011;43423;46.510;6.686;2023-12-20T08:29:56;25.88;;;10.57;;
57593;SDS011;43423;46.510;6.686;2023-12-20T08:32:22;26.27;;;9.05;;
57593;SDS011;43423;46.510;6.686;2023-12-20T08:34:50;24.88;;;9.15;;
57593;SDS011;43423;46.510;6.686;2023-12-20T08:37:16;21.58;;;8.85;;
57593;SDS011;43423;46.510;6.686;2023-12-20T08:39:42;20.55;;;9.45;;
57593;SDS011;43423;46.510;6.686;2023-12-20T08:42:09;30.40;;;10.43;;
57593;SDS011;43423;46.510;6.686;2023-12-20T08:44:35;25.75;;;9.68;;
57593;SDS011;43423;46.510;6.686;2023-12-20T08:47:00;17.60;;;8.10;;
57593;SDS011;43423;46.510;6.686;2023-12-20T08:49:26;18.88;;;8.68;;
57593;SDS011;43423;46.510;6.686;2023-12-20T08:51:53;18.77;;;8.73;;
57593;SDS011;43423;46.510;6.686;2023-12-20T08:54:18;18.15;;;8.20;;
57593;SDS011;43423;46.510;6.686;2023-12-20T08:56:44;20.63;;;9.15;;
57593;SDS011;43423;46.510;6.686;2023-12-20T08:59:11;19.95;;;8.43;;
57593;SDS011;43423;46.510;6.686;2023-12-20T09:01:37;21.75;;;7.88;;
57593;SDS011;43423;46.510;6.686;2023-12-20T09:04:03;14.10;;;7.05;;
57593;SDS011;43423;46.510;6.686;2023-12-20T09:06:29;15.30;;;6.65;;
57593;SDS011;43423;46.510;6.686;2023-12-20T09:08:54;14.25;;;6.78;;
57593;SDS011;43423;46.510;6.686;2023-12-20T09:11:20;12.13;;;6.30;;
57593;SDS011;43423;46.510;6.686;2023-12-20T09:13:45;12.13;;;6.65;;
57593;SDS011;43423;46.510;6.686;2023-12-20T09:16:11;9.93;;;5.57;;
57593;SDS011;43423;46.510;6.686;2023-12-20T09:18:38;12.45;;;6.50;;
57593;SDS011;43423;46.510;6.686;2023-12-20T09:21:04;10.90;;;6.15;;
57593;SDS011;43423;46.510;6.686;2023-12-20T09:23:30;12.80;;;6.32;;
57593;SDS011;43423;46.510;6.686;2023-12-20T09:25:55;12.07;;;5.20;;
57593;SDS011;43423;46.510;6.686;2023-12-20T09:28:21;9.80;;;6.05;;
57593;SDS011;43423;46.510;6.686;2023-12-20T09:30:46;12.75;;;6.47;;
57593;SDS011;43423;46.510;6.686;2023-12-20T09:33:13;10.88;;;5.53;;
57593;SDS011;43423;46.510;6.686;2023-12-20T09:35:39;10.27;;;5.05;;
57593;SDS011;43423;46.510;6.686;2023-12-20T09:38:05;8.93;;;5.28;;
57593;SDS011;43423;46.510;6.686;2023-12-20T09:40:31;7.82;;;4.78;;
57593;SDS011;43423;46.510;6.686;2023-12-20T09:43:08;9.48;;;5.30;;
57593;SDS011;43423;46.510;6.686;2023-12-20T09:45:36;9.68;;;5.10;;
57593;SDS011;43423;46.510;6.686;2023-12-20T09:48:04;9.30;;;5.15;;
57593;SDS011;43423;46.510;6.686;2023-12-20T09:50:30;11.30;;;5.82;;
57593;SDS011;43423;46.510;6.686;2023-12-20T09:52:58;12.63;;;5.80;;
57593;SDS011;43423;46.510;6.686;2023-12-20T09:55:26;9.25;;;5.00;;
57593;SDS011;43423;46.510;6.686;2023-12-20T09:57:53;11.80;;;5.20;;
57593;SDS011;43423;46.510;6.686;2023-12-20T10:00:19;12.27;;;4.88;;
57593;SDS011;43423;46.510;6.686;2023-12-20T10:02:45;14.45;;;5.93;;
57593;SDS011;43423;46.510;6.686;2023-12-20T10:05:19;12.27;;;5.68;;
57593;SDS011;43423;46.510;6.686;2023-12-20T10:07:58;10.98;;;6.32;;
57593;SDS011;43423;46.510;6.686;2023-12-20T10:10:24;13.57;;;7.80;;
57593;SDS011;43423;46.510;6.686;2023-12-20T10:13:06;12.43;;;6.05;;
57593;SDS011;43423;46.510;6.686;2023-12-20T10:15:34;20.92;;;6.63;;
57593;SDS011;43423;46.510;6.686;2023-12-20T10:18:01;17.23;;;7.50;;
57593;SDS011;43423;46.510;6.686;2023-12-20T10:20:27;15.52;;;7.32;;
57593;SDS011;43423;46.510;6.686;2023-12-20T10:22:56;16.50;;;8.07;;
57593;SDS011;43423;46.510;6.686;2023-12-20T10:25:23;12.77;;;7.55;;
57593;SDS011;43423;46.510;6.686;2023-12-20T10:27:50;16.73;;;7.35;;
57593;SDS011;43423;46.510;6.686;2023-12-20T10:30:48;16.27;;;6.78;;
57593;SDS011;43423;46.510;6.686;2023-12-20T10:33:24;14.77;;;7.25;;
57593;SDS011;43423;46.510;6.686;2023-12-20T10:35:51;17.50;;;8.23;;
57593;SDS011;43423;46.510;6.686;2023-12-20T10:38:18;16.70;;;7.82;;
57593;SDS011;43423;46.510;6.686;2023-12-20T10:40:47;21.63;;;7.80;;
57593;SDS011;43423;46.510;6.686;2023-12-20T10:43:13;15.05;;;7.25;;
57593;SDS011;43423;46.510;6.686;2023-12-20T10:45:40;19.48;;;7.80;;
57593;SDS011;43423;46.510;6.686;2023-12-20T10:48:07;14.57;;;6.75;;
57593;SDS011;43423;46.510;6.686;2023-12-20T10:50:36;16.02;;;7.57;;
57593;SDS011;43423;46.510;6.686;2023-12-20T10:53:04;21.35;;;8.80;;
57593;SDS011;43423;46.510;6.686;2023-12-20T10:55:32;15.55;;;7.40;;
57593;SDS011;43423;46.510;6.686;2023-12-20T10:58:01;16.80;;;7.80;;
57593;SDS011;43423;46.510;6.686;2023-12-20T11:00:28;18.50;;;8.35;;
57593;SDS011;43423;46.510;6.686;2023-12-20T11:02:56;17.45;;;7.25;;
57593;SDS011;43423;46.510;6.686;2023-12-20T11:05:36;18.00;;;8.25;;
57593;SDS011;43423;46.510;6.686;2023-12-20T11:08:09;18.35;;;8.23;;
57593;SDS011;43423;46.510;6.686;2023-12-20T11:13:20;19.92;;;8.73;;
57593;SDS011;43423;46.510;6.686;2023-12-20T11:15:49;18.35;;;8.80;;
57593;SDS011;43423;46.510;6.686;2023-12-20T11:18:15;26.50;;;10.75;;
57593;SDS011;43423;46.510;6.686;2023-12-20T11:20:41;27.55;;;10.80;;
57593;SDS011;43423;46.510;6.686;2023-12-20T11:23:07;26.27;;;11.27;;
57593;SDS011;43423;46.510;6.686;2023-12-20T11:28:23;21.17;;;9.07;;
57593;SDS011;43423;46.510;6.686;2023-12-20T11:30:54;23.77;;;10.30;;
57593;SDS011;43423;46.510;6.686;2023-12-20T11:33:21;16.88;;;8.05;;
57593;SDS011;43423;46.510;6.686;2023-12-20T11:35:51;18.03;;;8.60;;
57593;SDS011;43423;46.510;6.686;2023-12-20T11:38:20;22.05;;;9.02;;
57593;SDS011;43423;46.510;6.686;2023-12-20T11:40:47;22.95;;;9.88;;
57593;SDS011;43423;46.510;6.686;2023-12-20T11:43:34;26.27;;;10.70;;
57593;SDS011;43423;46.510;6.686;2023-12-20T11:46:08;23.17;;;8.65;;
57593;SDS011;43423;46.510;6.686;2023-12-20T11:48:38;21.45;;;8.73;;
57593;SDS011;43423;46.510;6.686;2023-12-20T11:51:14;20.17;;;9.37;;
57593;SDS011;43423;46.510;6.686;2023-12-20T11:53:40;20.63;;;9.00;;
57593;SDS011;43423;46.510;6.686;2023-12-20T11:56:07;22.38;;;8.60;;
57593;SDS011;43423;46.510;6.686;2023-12-20T11:58:34;16.75;;;7.95;;
57593;SDS011;43423;46.510;6.686;2023-12-20T12:01:00;13.75;;;7.70;;
57593;SDS011;43423;46.510;6.686;2023-12-20T12:03:28;16.02;;;8.88;;
57593;SDS011;43423;46.510;6.686;2023-12-20T12:05:53;17.38;;;7.82;;
57593;SDS011;43423;46.510;6.686;2023-12-20T12:08:19;17.63;;;8.45;;
57593;SDS011;43423;46.510;6.686;2023-12-20T12:10:45;21.00;;;8.05;;
57593;SDS011;43423;46.510;6.686;2023-12-20T12:13:11;15.93;;;7.32;;
57593;SDS011;43423;46.510;6.686;2023-12-20T12:15:36;16.40;;;7.90;;
57593;SDS011;43423;46.510;6.686;2023-12-20T12:18:03;15.63;;;8.32;;
57593;SDS011;43423;46.510;6.686;2023-12-20T12:20:30;13.80;;;6.45;;
57593;SDS011;43423;46.510;6.686;2023-12-20T12:23:05;14.85;;;7.07;;
57593;SDS011;43423;46.510;6.686;2023-12-20T12:25:31;15.50;;;6.72;;
57593;SDS011;43423;46.510;6.686;2023-12-20T12:27:58;17.92;;;7.78;;
57593;SDS011;43423;46.510;6.686;2023-12-20T12:30:24;11.50;;;6.55;;
57593;SDS011;43423;46.510;6.686;2023-12-20T12:32:53;14.27;;;7.20;;
57593;SDS011;43423;46.510;6.686;2023-12-20T12:35:19;15.02;;;6.75;;
57593;SDS011;43423;46.510;6.686;2023-12-20T12:37:45;16.60;;;7.25;;
57593;SDS011;43423;46.510;6.686;2023-12-20T12:40:12;11.60;;;5.80;;
57593;SDS011;43423;46.510;6.686;2023-12-20T12:42:39;10.90;;;6.53;;
57593;SDS011;43423;46.510;6.686;2023-12-20T12:45:06;16.73;;;6.38;;
57593;SDS011;43423;46.510;6.686;2023-12-20T12:47:32;11.48;;;5.45;;
57593;SDS011;43423;46.510;6.686;2023-12-20T12:49:58;10.93;;;6.35;;
57593;SDS011;43423;46.510;6.686;2023-12-20T12:52:24;13.95;;;6.72;;
57593;SDS011;43423;46.510;6.686;2023-12-20T12:54:51;9.90;;;5.72;;
57593;SDS011;43423;46.510;6.686;2023-12-20T12:57:18;11.48;;;5.70;;
57593;SDS011;43423;46.510;6.686;2023-12-20T12:59:44;13.35;;;5.80;;
57593;SDS011;43423;46.510;6.686;2023-12-20T13:02:14;13.00;;;5.97;;
57593;SDS011;43423;46.510;6.686;2023-12-20T13:04:42;11.63;;;5.95;;
57593;SDS011;43423;46.510;6.686;2023-12-20T13:07:08;16.42;;;7.43;;
57593;SDS011;43423;46.510;6.686;2023-12-20T13:09:38;17.80;;;7.68;;
57593;SDS011;43423;46.510;6.686;2023-12-20T13:12:05;11.43;;;6.63;;
57593;SDS011;43423;46.510;6.686;2023-12-20T13:14:33;13.63;;;6.95;;
57593;SDS011;43423;46.510;6.686;2023-12-20T13:17:00;11.07;;;6.38;;
57593;SDS011;43423;46.510;6.686;2023-12-20T13:19:26;14.95;;;6.25;;
57593;SDS011;43423;46.510;6.686;2023-12-20T13:21:53;12.82;;;5.13;;
57593;SDS011;43423;46.510;6.686;2023-12-20T13:24:18;9.70;;;4.63;;
57593;SDS011;43423;46.510;6.686;2023-12-20T13:26:44;12.95;;;5.70;;
57593;SDS011;43423;46.510;6.686;2023-12-20T13:29:09;8.93;;;4.88;;
57593;SDS011;43423;46.510;6.686;2023-12-20T13:31:35;12.45;;;5.35;;
57593;SDS011;43423;46.510;6.686;2023-12-20T13:34:01;6.97;;;4.30;;
57593;SDS011;43423;46.510;6.686;2023-12-20T13:36:27;4.60;;;2.85;;
57593;SDS011;43423;46.510;6.686;2023-12-20T13:38:53;4.10;;;2.88;;
57593;SDS011;43423;46.510;6.686;2023-12-20T13:41:19;1.75;;;1.17;;
57593;SDS011;43423;46.510;6.686;2023-12-20T13:43:45;5.90;;;1.10;;
57593;SDS011;43423;46.510;6.686;2023-12-20T13:46:11;0.70;;;0.70;;
57593;SDS011;43423;46.510;6.686;2023-12-20T13:48:37;1.67;;;1.10;;
57593;SDS011;43423;46.510;6.686;2023-12-20T13:51:03;1.08;;;0.98;;
57593;SDS011;43423;46.510;6.686;2023-12-20T13:53:29;1.85;;;1.40;;
57593;SDS011;43423;46.510;6.686;2023-12-20T13:55:54;2.33;;;1.40;;
57593;SDS011;43423;46.510;6.686;2023-12-20T13:58:20;1.40;;;1.10;;
57593;SDS011;43423;46.510;6.686;2023-12-20T14:00:45;4.45;;;1.50;;
57593;SDS011;43423;46.510;6.686;2023-12-20T14:03:11;1.25;;;1.10;;
57593;SDS011;43423;46.510;6.686;2023-12-20T14:05:37;1.85;;;1.50;;
57593;SDS011;43423;46.510;6.686;2023-12-20T14:08:03;2.70;;;1.20;;
57593;SDS011;43423;46.510;6.686;2023-12-20T14:10:29;1.15;;;1.05;;
57593;SDS011;43423;46.510;6.686;2023-12-20T14:12:55;1.80;;;1.15;;
57593;SDS011;43423;46.510;6.686;2023-12-20T14:15:20;1.13;;;1.05;;
57593;SDS011;43423;46.510;6.686;2023-12-20T14:17:46;2.53;;;1.55;;
57593;SDS011;43423;46.510;6.686;2023-12-20T14:20:12;1.23;;;1.13;;
57593;SDS011;43423;46.510;6.686;2023-12-20T14:22:38;1.67;;;1.30;;
57593;SDS011;43423;46.510;6.686;2023-12-20T14:25:04;1.27;;;1.02;;
57593;SDS011;43423;46.510;6.686;2023-12-20T14:27:31;1.10;;;0.93;;
57593;SDS011;43423;46.510;6.686;2023-12-20T14:29:57;1.50;;;1.00;;
57593;SDS011;43423;46.510;6.686;2023-12-20T14:32:23;1.17;;;1.00;;
57593;SDS011;43423;46.510;6.686;2023-12-20T14:34:49;1.20;;;1.00;;
57593;SDS011;43423;46.510;6.686;2023-12-20T14:37:14;1.60;;;1.00;;